createdAt,value
2023-03-26T00:01:33.491Z,0.50
2023-03-26T00:04:01.676Z,0.57
2023-03-26T00:06:31.175Z,1.45
2023-03-26T00:08:58.929Z,0.60
2023-03-26T00:11:28.313Z,0.68
2023-03-26T00:13:59.248Z,0.30
2023-03-26T00:16:29.451Z,0.45
2023-03-26T00:18:57.776Z,0.30
2023-03-26T00:21:28.027Z,0.55
2023-03-26T00:24:04.434Z,0.30
2023-03-26T00:26:34.113Z,0.60
2023-03-26T00:29:03.713Z,0.60
2023-03-26T00:31:31.788Z,0.45
2023-03-26T00:34:03.205Z,0.50
2023-03-26T00:36:31.058Z,0.60
2023-03-26T00:38:58.473Z,0.50
2023-03-26T00:41:26.994Z,0.40
2023-03-26T00:43:56.984Z,0.40
2023-03-26T00:46:25.855Z,0.62
2023-03-26T00:48:54.021Z,0.40
2023-03-26T00:51:22.091Z,0.40
2023-03-26T00:53:50.535Z,0.50
2023-03-26T00:56:18.632Z,0.43
2023-03-26T00:58:50.076Z,0.30
2023-03-26T01:01:29.197Z,0.40
2023-03-26T01:04:08.321Z,0.30
2023-03-26T01:06:41.434Z,0.40
2023-03-26T01:09:21.311Z,0.30
2023-03-26T01:11:49.661Z,0.40
2023-03-26T01:14:21.268Z,0.50
2023-03-26T01:16:52.484Z,0.40
2023-03-26T01:19:45.278Z,0.40
2023-03-26T01:22:16.579Z,0.40
2023-03-26T01:24:48.654Z,0.95
2023-03-26T01:27:35.982Z,0.60
2023-03-26T01:30:20.874Z,0.40
2023-03-26T01:33:19.640Z,0.50
2023-03-26T01:36:06.180Z,0.50
2023-03-26T01:38:52.198Z,0.50
2023-03-26T01:41:45.613Z,0.68
2023-03-26T01:44:22.074Z,0.50
2023-03-26T01:46:50.266Z,0.45
2023-03-26T01:49:18.401Z,0.68
2023-03-26T01:51:45.987Z,0.40
2023-03-26T01:54:21.189Z,0.50
2023-03-26T01:56:51.002Z,0.45
2023-03-26T01:59:39.194Z,0.50
2023-03-26T02:02:13.934Z,0.47
2023-03-26T02:04:53.907Z,0.60
2023-03-26T02:07:38.179Z,0.55
2023-03-26T02:10:21.612Z,0.65
2023-03-26T02:12:49.923Z,0.85
2023-03-26T02:15:17.529Z,0.40
2023-03-26T02:17:44.928Z,0.40
2023-03-26T02:20:14.491Z,0.50
2023-03-26T02:22:45.714Z,0.37
2023-03-26T02:25:19.350Z,0.55
2023-03-26T02:27:49.028Z,0.50
2023-03-26T02:30:19.854Z,0.30
2023-03-26T02:32:47.838Z,1.10
2023-03-26T02:35:15.671Z,0.60
2023-03-26T02:37:46.944Z,0.65
2023-03-26T02:40:14.673Z,0.47
2023-03-26T02:42:42.429Z,0.40
2023-03-26T02:45:10.382Z,0.43
2023-03-26T02:47:39.738Z,0.50
2023-03-26T02:50:09.728Z,0.30
2023-03-26T02:52:38.998Z,0.57
2023-03-26T02:55:07.416Z,0.30
2023-03-26T02:57:35.085Z,0.65
2023-03-26T03:00:09.114Z,0.47
2023-03-26T03:02:39.821Z,0.60
2023-03-26T03:05:08.830Z,0.65
2023-03-26T03:07:38.005Z,0.30
2023-03-26T03:10:08.745Z,0.52
2023-03-26T03:12:38.569Z,0.50
2023-03-26T03:15:06.378Z,0.55
2023-03-26T03:17:33.978Z,1.77
2023-03-26T03:20:01.681Z,0.55
2023-03-26T03:22:30.108Z,0.60
2023-03-26T03:24:59.961Z,0.60
2023-03-26T03:27:27.789Z,0.70
2023-03-26T03:29:55.965Z,0.30
2023-03-26T03:32:24.464Z,0.50
2023-03-26T03:34:52.340Z,1.00
2023-03-26T03:37:20.337Z,0.65
2023-03-26T03:39:48.541Z,0.50
2023-03-26T03:42:16.482Z,0.50
2023-03-26T03:44:44.443Z,0.65
2023-03-26T03:47:13.890Z,1.48
2023-03-26T03:49:41.869Z,1.37
2023-03-26T03:52:09.348Z,1.48
2023-03-26T03:54:37.383Z,1.05
2023-03-26T03:57:05.648Z,1.10
2023-03-26T03:59:33.679Z,0.50
2023-03-26T04:02:04.074Z,0.50
2023-03-26T04:04:32.826Z,0.77
2023-03-26T04:07:00.715Z,0.62
2023-03-26T04:09:28.591Z,0.50
2023-03-26T04:11:56.645Z,0.68
2023-03-26T04:14:25.375Z,0.50
2023-03-26T04:16:55.039Z,0.50
2023-03-26T04:19:23.235Z,0.65
2023-03-26T04:21:50.652Z,0.45
2023-03-26T04:24:20.547Z,0.50
2023-03-26T04:26:51.004Z,0.80
2023-03-26T04:29:22.089Z,0.60
2023-03-26T04:31:51.158Z,0.60
2023-03-26T04:34:24.431Z,0.85
2023-03-26T04:36:54.683Z,0.62
2023-03-26T04:39:23.684Z,0.75
2023-03-26T04:41:55.453Z,0.68
2023-03-26T04:44:22.848Z,0.82
2023-03-26T04:46:52.958Z,1.55
2023-03-26T04:49:21.116Z,1.95
2023-03-26T04:51:48.584Z,1.55
2023-03-26T04:54:20.625Z,1.95
2023-03-26T04:56:58.744Z,1.30
2023-03-26T04:59:35.142Z,1.45
2023-03-26T05:02:05.556Z,1.25
2023-03-26T05:04:36.836Z,0.90
2023-03-26T05:07:04.692Z,0.98
2023-03-26T05:09:33.364Z,1.12
2023-03-26T05:12:03.131Z,1.08
2023-03-26T05:14:36.234Z,0.82
2023-03-26T05:17:06.092Z,1.10
2023-03-26T05:19:33.775Z,0.40
2023-03-26T05:22:01.290Z,1.42
2023-03-26T05:24:29.134Z,1.02
2023-03-26T05:26:57.191Z,0.95
2023-03-26T05:29:24.842Z,1.55
2023-03-26T05:31:52.428Z,1.27
2023-03-26T05:34:20.732Z,1.02
2023-03-26T05:36:48.634Z,1.48
2023-03-26T05:39:17.407Z,1.17
2023-03-26T05:41:46.219Z,0.85
2023-03-26T05:44:13.598Z,1.23
2023-03-26T05:46:41.157Z,0.68
2023-03-26T05:49:10.904Z,1.33
2023-03-26T05:51:38.558Z,0.62
2023-03-26T05:54:08.718Z,0.95
2023-03-26T05:56:38.272Z,1.40
2023-03-26T05:59:08.885Z,0.85
2023-03-26T06:01:37.603Z,1.40
2023-03-26T06:04:06.123Z,0.85
2023-03-26T06:06:35.897Z,0.50
2023-03-26T06:09:04.537Z,1.50
2023-03-26T06:11:32.498Z,0.93
2023-03-26T06:14:00.694Z,0.50
2023-03-26T06:16:28.627Z,0.70
2023-03-26T06:18:57.408Z,0.77
2023-03-26T06:21:26.412Z,0.85
2023-03-26T06:23:55.456Z,0.85
2023-03-26T06:26:26.562Z,0.85
2023-03-26T06:28:54.223Z,0.52
2023-03-26T06:31:21.905Z,0.95
2023-03-26T06:33:49.910Z,1.73
2023-03-26T06:36:17.443Z,0.73
2023-03-26T06:38:48.863Z,0.55
2023-03-26T06:41:17.025Z,1.12
2023-03-26T06:43:44.897Z,0.30
2023-03-26T06:46:13.336Z,0.47
2023-03-26T06:48:42.329Z,0.62
2023-03-26T06:51:12.682Z,0.45
2023-03-26T06:53:41.948Z,0.88
2023-03-26T06:56:09.945Z,0.82
2023-03-26T06:58:37.970Z,0.68
2023-03-26T07:01:18.030Z,0.88
2023-03-26T07:03:59.839Z,0.50
2023-03-26T07:06:53.887Z,0.97
2023-03-26T07:09:30.426Z,1.15
2023-03-26T07:11:59.651Z,1.55
2023-03-26T07:14:30.443Z,1.30
2023-03-26T07:17:01.297Z,0.73
2023-03-26T07:19:29.524Z,1.10
2023-03-26T07:21:57.569Z,1.15
2023-03-26T07:24:27.005Z,0.60
2023-03-26T07:27:07.254Z,0.70
2023-03-26T07:29:45.721Z,0.50
2023-03-26T07:32:24.150Z,0.50
2023-03-26T07:35:03.701Z,0.82
2023-03-26T07:37:40.982Z,0.75
2023-03-26T07:40:48.663Z,0.68
2023-03-26T07:43:46.289Z,0.70
2023-03-26T07:48:49.840Z,0.88
2023-03-26T07:51:18.753Z,0.43
2023-03-26T07:53:46.923Z,0.45
2023-03-26T07:56:17.322Z,0.88
2023-03-26T07:59:18.088Z,0.82
2023-03-26T08:02:19.604Z,1.33
2023-03-26T08:04:53.487Z,0.68
2023-03-26T08:07:25.102Z,0.55
2023-03-26T08:10:17.673Z,0.93
2023-03-26T08:13:13.120Z,1.35
2023-03-26T08:15:57.718Z,0.50
2023-03-26T08:18:44.614Z,0.62
2023-03-26T08:21:17.368Z,0.40
2023-03-26T08:24:12.539Z,1.48
2023-03-26T08:26:46.070Z,0.50
2023-03-26T08:29:21.606Z,0.55
2023-03-26T08:31:49.862Z,0.50
2023-03-26T08:34:17.295Z,1.33
2023-03-26T08:36:44.727Z,0.50
2023-03-26T08:39:13.142Z,0.43
2023-03-26T08:42:02.073Z,0.60
2023-03-26T08:44:58.258Z,1.08
2023-03-26T08:47:59.256Z,0.75
2023-03-26T08:50:51.677Z,1.75
2023-03-26T08:53:39.688Z,0.40
2023-03-26T08:56:26.544Z,0.77
2023-03-26T08:59:25.656Z,0.57
2023-03-26T09:02:31.366Z,0.50
2023-03-26T09:05:27.239Z,1.40
2023-03-26T09:08:18.895Z,0.60
2023-03-26T09:11:30.504Z,0.73
2023-03-26T09:14:28.002Z,0.40
2023-03-26T09:17:13.467Z,0.50
2023-03-26T09:22:56.285Z,0.62
2023-03-26T09:25:48.971Z,0.82
2023-03-26T09:28:32.529Z,0.35
2023-03-26T09:31:33.555Z,0.77
2023-03-26T09:34:32.367Z,0.80
2023-03-26T09:37:26.845Z,0.55
2023-03-26T09:40:12.873Z,0.75
2023-03-26T09:42:52.269Z,0.50
2023-03-26T09:45:36.001Z,0.52
2023-03-26T09:48:32.309Z,0.45
2023-03-26T09:51:38.411Z,0.47
2023-03-26T09:54:33.938Z,0.85
2023-03-26T09:57:21.202Z,0.68
2023-03-26T10:00:04.692Z,0.75
2023-03-26T10:02:47.467Z,0.40
2023-03-26T10:05:26.931Z,0.88
2023-03-26T10:08:10.647Z,0.85
2023-03-26T10:10:43.767Z,0.65
2023-03-26T10:13:15.025Z,0.85
2023-03-26T10:15:48.700Z,0.93
2023-03-26T10:18:32.188Z,0.95
2023-03-26T10:21:26.157Z,1.05
2023-03-26T10:24:04.530Z,0.50
2023-03-26T10:27:10.269Z,0.62
2023-03-26T10:29:44.382Z,0.62
2023-03-26T10:32:44.339Z,0.75
2023-03-26T10:35:19.968Z,1.10
2023-03-26T10:37:58.915Z,1.55
2023-03-26T10:41:04.693Z,1.45
2023-03-26T10:44:05.632Z,0.85
2023-03-26T10:46:47.871Z,1.15
2023-03-26T10:49:34.015Z,1.45
2023-03-26T10:52:06.983Z,0.85
2023-03-26T10:54:58.164Z,1.50
2023-03-26T10:57:38.069Z,2.05
2023-03-26T11:00:15.429Z,1.27
2023-03-26T11:03:11.956Z,0.55
2023-03-26T11:06:07.485Z,1.20
2023-03-26T11:08:48.523Z,4.10
2023-03-26T11:11:38.757Z,6.32
2023-03-26T11:14:35.195Z,1.48
2023-03-26T11:17:43.834Z,5.57
2023-03-26T11:20:17.493Z,4.80
2023-03-26T11:23:07.503Z,1.30
2023-03-26T11:25:44.016Z,4.18
2023-03-26T11:29:03.768Z,1.23
2023-03-26T11:31:49.190Z,2.15
2023-03-26T11:34:19.352Z,1.70
2023-03-26T11:36:50.605Z,0.70
2023-03-26T11:39:24.638Z,1.05
2023-03-26T11:41:59.342Z,0.50
2023-03-26T11:44:33.034Z,0.40
2023-03-26T11:47:05.009Z,0.73
2023-03-26T11:49:33.327Z,0.88
2023-03-26T11:52:02.699Z,0.43
2023-03-26T11:54:30.248Z,0.57
2023-03-26T11:57:06.995Z,0.95
2023-03-26T11:59:49.028Z,0.65
2023-03-26T12:02:35.717Z,0.43
2023-03-26T12:05:21.947Z,0.45
2023-03-26T12:08:00.228Z,1.00
2023-03-26T12:10:27.887Z,0.55
2023-03-26T12:12:58.326Z,0.57
2023-03-26T12:15:26.684Z,0.32
2023-03-26T12:17:58.041Z,0.57
2023-03-26T12:20:25.485Z,0.30
2023-03-26T12:23:00.948Z,0.60
2023-03-26T12:25:30.842Z,0.73
2023-03-26T12:28:04.848Z,0.43
2023-03-26T12:30:34.574Z,0.35
2023-03-26T12:33:26.178Z,0.30
2023-03-26T12:35:55.074Z,0.40
2023-03-26T12:38:33.910Z,0.22
2023-03-26T12:44:46.649Z,0.30
2023-03-26T12:44:46.872Z,0.20
2023-03-26T12:47:56.060Z,0.30
2023-03-26T12:49:35.510Z,0.50
2023-03-26T12:52:25.253Z,0.50
2023-03-26T12:55:02.451Z,0.80
2023-03-26T12:57:59.891Z,0.47
2023-03-26T13:01:23.659Z,0.45
2023-03-26T13:04:05.439Z,0.30
2023-03-26T13:06:59.057Z,0.40
2023-03-26T13:09:38.365Z,0.57
2023-03-26T13:12:27.446Z,0.30
2023-03-26T13:15:09.636Z,0.65
2023-03-26T13:17:45.302Z,0.65
2023-03-26T13:20:18.831Z,0.55
2023-03-26T13:23:08.317Z,0.50
2023-03-26T13:25:53.160Z,0.30
2023-03-26T13:28:39.444Z,0.30
2023-03-26T13:31:20.625Z,0.40
2023-03-26T13:33:58.200Z,0.50
2023-03-26T13:36:58.585Z,0.65
2023-03-26T13:39:49.952Z,0.20
2023-03-26T13:42:42.263Z,0.37
2023-03-26T13:45:28.404Z,0.40
2023-03-26T13:47:57.489Z,0.30
2023-03-26T13:50:34.340Z,0.65
2023-03-26T13:53:13.438Z,0.30
2023-03-26T13:55:44.042Z,0.30
2023-03-26T13:58:24.429Z,0.57
2023-03-26T14:01:12.632Z,0.77
2023-03-26T14:03:55.629Z,0.30
2023-03-26T14:06:22.994Z,0.70
2023-03-26T14:09:02.695Z,0.30
2023-03-26T14:11:56.897Z,0.22
2023-03-26T14:14:48.476Z,0.50
2023-03-26T14:17:39.296Z,0.37
2023-03-26T14:20:21.895Z,0.77
2023-03-26T14:23:24.814Z,0.37
2023-03-26T14:26:22.060Z,0.25
2023-03-26T14:28:58.305Z,0.45
2023-03-26T14:31:48.605Z,0.47
2023-03-26T14:34:30.035Z,0.30
2023-03-26T14:37:17.870Z,0.75
2023-03-26T14:40:40.724Z,0.43
2023-03-26T14:43:30.021Z,0.45
2023-03-26T14:46:20.528Z,0.50
2023-03-26T14:48:57.244Z,0.68
2023-03-26T14:51:34.386Z,0.82
2023-03-26T14:54:12.068Z,0.57
2023-03-26T14:56:51.298Z,0.30
2023-03-26T14:59:45.045Z,0.32
2023-03-26T15:02:37.670Z,0.47
2023-03-26T15:05:42.315Z,0.35
2023-03-26T15:08:34.356Z,0.40
2023-03-26T15:11:17.353Z,0.40
2023-03-26T15:13:59.568Z,0.45
2023-03-26T15:16:52.462Z,0.40
2023-03-26T15:19:38.907Z,0.43
2023-03-26T15:22:12.590Z,0.62
2023-03-26T15:25:01.678Z,0.30
2023-03-26T15:27:47.502Z,0.43
2023-03-26T15:30:50.280Z,0.20
2023-03-26T15:33:41.840Z,0.28
2023-03-26T15:36:41.153Z,0.52
2023-03-26T15:39:32.041Z,0.55
2023-03-26T15:42:00.042Z,0.40
2023-03-26T15:45:16.029Z,0.40
2023-03-26T15:47:54.304Z,0.37
2023-03-26T15:50:24.910Z,0.50
2023-03-26T15:53:18.636Z,0.40
2023-03-26T15:55:55.086Z,0.55
2023-03-26T15:58:31.965Z,0.30
2023-03-26T16:01:29.356Z,0.40
2023-03-26T16:04:00.631Z,0.95
2023-03-26T16:06:51.985Z,1.33
2023-03-26T16:09:46.278Z,0.80
2023-03-26T16:12:16.728Z,1.10
2023-03-26T16:15:13.857Z,0.57
2023-03-26T16:18:15.492Z,0.82
2023-03-26T16:20:54.051Z,0.98
2023-03-26T16:23:27.263Z,2.95
2023-03-26T16:26:11.370Z,5.95
2023-03-26T16:28:44.983Z,3.92
2023-03-26T16:31:36.820Z,2.15
2023-03-26T16:34:03.382Z,1.33
2023-03-26T16:36:45.218Z,1.20
2023-03-26T16:39:18.107Z,2.67
2023-03-26T16:41:49.954Z,3.60
2023-03-26T16:44:36.062Z,2.10
2023-03-26T16:47:32.405Z,5.78
2023-03-26T16:52:50.568Z,3.20
2023-03-26T16:55:21.581Z,1.70
2023-03-26T16:58:29.918Z,2.42
2023-03-26T17:01:21.393Z,1.02
2023-03-26T17:03:49.229Z,1.45
2023-03-26T17:07:01.844Z,1.48
2023-03-26T17:10:00.580Z,1.60
2023-03-26T17:12:34.589Z,1.58
2023-03-26T17:15:20.926Z,2.22
2023-03-26T17:18:09.389Z,2.25
2023-03-26T17:20:42.493Z,3.95
2023-03-26T17:23:32.054Z,3.85
2023-03-26T17:26:18.268Z,2.20
2023-03-26T17:28:55.748Z,2.53
2023-03-26T17:31:32.639Z,1.80
2023-03-26T17:34:48.400Z,2.78
2023-03-26T17:37:16.332Z,2.25
2023-03-26T17:39:43.774Z,2.25
2023-03-26T17:42:21.269Z,1.17
2023-03-26T17:44:55.730Z,1.50
2023-03-26T17:47:26.360Z,1.75
2023-03-26T17:50:00.088Z,1.85
2023-03-26T17:52:49.150Z,2.27
2023-03-26T17:55:23.463Z,2.62
2023-03-26T17:57:53.733Z,2.30
2023-03-26T18:00:23.926Z,2.58
2023-03-26T18:03:02.383Z,3.47
2023-03-26T18:05:30.931Z,3.35
2023-03-26T18:08:15.205Z,3.60
2023-03-26T18:10:56.342Z,2.78
2023-03-26T18:14:02.012Z,2.35
2023-03-26T18:16:38.008Z,3.70
2023-03-26T18:19:19.121Z,4.85
2023-03-26T18:21:50.425Z,4.37
2023-03-26T18:24:31.407Z,3.22
2023-03-26T18:27:03.457Z,2.67
2023-03-26T18:29:35.750Z,4.93
2023-03-26T18:32:09.424Z,3.12
2023-03-26T18:34:40.907Z,2.42
2023-03-26T18:37:11.398Z,2.47
2023-03-26T18:39:39.578Z,3.00
2023-03-26T18:42:07.137Z,1.85
2023-03-26T18:44:39.123Z,2.67
2023-03-26T18:47:07.334Z,1.95
2023-03-26T18:49:36.598Z,2.80
2023-03-26T18:52:04.450Z,2.87
2023-03-26T18:54:35.487Z,3.12
2023-03-26T18:57:15.219Z,2.80
2023-03-26T18:59:45.540Z,3.17
2023-03-26T19:02:13.953Z,2.08
2023-03-26T19:04:46.213Z,2.25
2023-03-26T19:07:17.191Z,2.05
2023-03-26T19:09:45.986Z,2.15
2023-03-26T19:12:28.024Z,2.72
2023-03-26T19:14:56.949Z,3.17
2023-03-26T19:17:28.217Z,2.70
2023-03-26T19:19:57.434Z,2.83
2023-03-26T19:22:25.661Z,1.65
2023-03-26T19:24:57.738Z,3.25
2023-03-26T19:27:25.441Z,3.58
2023-03-26T19:29:53.206Z,2.03
2023-03-26T19:32:28.892Z,2.42
2023-03-26T19:34:59.026Z,2.12
2023-03-26T19:37:30.083Z,2.08
2023-03-26T19:40:07.190Z,2.40
2023-03-26T19:42:43.295Z,4.03
2023-03-26T19:45:18.594Z,6.18
2023-03-26T19:47:49.969Z,5.20
2023-03-26T19:50:25.492Z,5.95
2023-03-26T19:53:18.965Z,3.33
2023-03-26T19:55:58.983Z,2.35
2023-03-26T19:58:27.391Z,3.67
2023-03-26T20:00:58.584Z,5.10
2023-03-26T20:03:29.892Z,3.47
2023-03-26T20:05:57.502Z,3.37
2023-03-26T20:08:26.984Z,2.60
2023-03-26T20:10:57.064Z,1.70
2023-03-26T20:13:24.978Z,2.12
2023-03-26T20:16:06.107Z,3.58
2023-03-26T20:18:34.968Z,2.97
2023-03-26T20:21:05.534Z,1.15
2023-03-26T20:23:33.067Z,1.95
2023-03-26T20:26:00.779Z,1.50
2023-03-26T20:28:28.398Z,1.65
2023-03-26T20:30:56.344Z,3.08
2023-03-26T20:33:26.636Z,1.62
2023-03-26T20:35:55.940Z,1.95
2023-03-26T20:38:39.048Z,2.65
2023-03-26T20:41:13.460Z,1.33
2023-03-26T20:43:42.440Z,2.15
2023-03-26T20:46:15.897Z,1.92
2023-03-26T20:48:43.842Z,2.35
2023-03-26T20:51:15.600Z,2.30
2023-03-26T20:53:44.492Z,7.57
2023-03-26T20:56:17.898Z,4.12
2023-03-26T20:58:47.847Z,4.57
2023-03-26T21:01:17.532Z,5.40
2023-03-26T21:03:46.160Z,2.70
2023-03-26T21:06:13.970Z,3.87
2023-03-26T21:08:43.028Z,2.65
2023-03-26T21:11:26.552Z,2.05
2023-03-26T21:14:33.449Z,3.17
2023-03-26T21:17:01.818Z,2.75
2023-03-26T21:19:29.742Z,1.25
2023-03-26T21:22:04.769Z,1.33
2023-03-26T21:27:46.077Z,0.95
2023-03-26T21:30:16.338Z,1.05
2023-03-26T21:32:45.522Z,1.80
2023-03-26T21:35:14.932Z,1.30
2023-03-26T21:37:44.407Z,2.00
2023-03-26T21:40:16.726Z,1.65
2023-03-26T21:42:46.981Z,1.30
2023-03-26T21:45:14.855Z,0.75
2023-03-26T21:47:43.102Z,1.25
2023-03-26T21:50:13.869Z,0.90
2023-03-26T21:52:47.249Z,2.47
2023-03-26T21:55:22.454Z,0.95
2023-03-26T21:58:13.351Z,0.52
2023-03-26T22:00:56.956Z,0.95
2023-03-26T22:03:30.387Z,0.68
2023-03-26T22:06:03.599Z,0.82
2023-03-26T22:08:36.816Z,0.70
2023-03-26T22:11:05.707Z,0.82
2023-03-26T22:13:35.745Z,0.62
2023-03-26T22:16:03.209Z,0.50
2023-03-26T22:18:30.893Z,0.85
2023-03-26T22:20:59.961Z,1.40
2023-03-26T22:23:28.074Z,1.85
2023-03-26T22:25:56.053Z,0.62
2023-03-26T22:28:23.734Z,0.73
2023-03-26T22:30:52.280Z,0.93
2023-03-26T22:33:20.120Z,1.10
2023-03-26T22:35:48.010Z,0.88
2023-03-26T22:38:17.112Z,1.10
2023-03-26T22:40:44.555Z,0.62
2023-03-26T22:43:12.277Z,1.73
2023-03-26T22:45:39.721Z,0.88
2023-03-26T22:48:07.422Z,0.85
2023-03-26T22:50:35.174Z,1.00
2023-03-26T22:53:02.557Z,0.80
2023-03-26T22:55:30.212Z,0.82
2023-03-26T22:57:57.991Z,1.00
2023-03-26T23:00:26.469Z,0.65
2023-03-26T23:02:55.998Z,0.75
2023-03-26T23:05:23.841Z,0.70
2023-03-26T23:07:52.334Z,0.90
2023-03-26T23:10:21.600Z,0.57
2023-03-26T23:12:49.685Z,0.50
2023-03-26T23:15:17.175Z,0.68
2023-03-26T23:17:44.583Z,0.40
2023-03-26T23:20:22.511Z,0.40
2023-03-26T23:22:50.685Z,0.40
2023-03-26T23:25:18.237Z,1.95
2023-03-26T23:27:45.913Z,0.55
2023-03-26T23:30:13.630Z,0.75
2023-03-26T23:32:41.462Z,1.27
2023-03-26T23:35:09.626Z,0.95
2023-03-26T23:37:38.849Z,0.75
2023-03-26T23:40:10.128Z,1.48
2023-03-26T23:42:38.049Z,0.70
2023-03-26T23:45:06.224Z,0.82
2023-03-26T23:47:34.965Z,1.92
2023-03-26T23:50:04.407Z,0.57
2023-03-26T23:52:31.880Z,0.47
2023-03-26T23:55:02.325Z,1.10
2023-03-26T23:57:30.609Z,0.80
2023-03-26T23:59:58.456Z,0.77
